Padron, Spain
Current Conditions -  °F | °C
As of 4:30 PM on Friday 28 Nov 2014 (Local Time) from LEST Reporting Station
Scattered Clouds Scattered Clouds  
Wind Chill: 50°   Ceiling: Unl
Heat Index: 50°   Visibility: 6mi
Dew Point: 45°   Wind: 6mph
Humidity: 82%   Direction: 200°SSW
Pressure: 29.09"   Gusts: NA
Location:  42.74°N, 8.66°W
Report Text: LEST 281530Z 20005KT 160V240 9999 SCT013 SCT048 10/07 Q0985 NOSIG
Loading
Personal Weather Stations






























Interactive Weather Map New forecast layout! Learn more

10-Day Weather Forecast

Advertisements
Track Severe Weather on mobile